Terminal Aerodrome Forecast
Issued by NWS Blacksburg, VA

Current Version | Previous Version | Graphics & Text | Print | Product List | Glossary On
Versions: 1 2 3 4 5 6 7 8 9 10 11 12 13 14 15 16 17 18 19 20 21 22 23 24 25 26 27 28 29 30 31 32 33 34 35 36 37 38 39 40 41
000
FTUS41 KRNK 251129
TAFBLF
TAF
KBLF 251129Z 2512/2612 30007KT P6SM BKN018 OVC025
     FM251400 28009G18KT P6SM BKN040
     FM252100 32005KT P6SM SCT030 OVC250
     FM260400 05003KT P6SM -RA OVC035
     FM260700 02005KT 2SM -SN BR SCT007 OVC015=

USA.gov is the U.S. government's official web portal to all federal, state and local government web resources and services.